Time;durP1;ratioP1;P1;durP2;ratioP2;P2;SDS_P1;SDS_P2;PMS_P1;PMS_P2;Temp;Humidity;BMP_temperature;BMP_pressure;BME280_temperature;BME280_humidity;BME280_pressure;Samples;Min_cycle;Max_cycle;Signal;HPM_P1;HPM_P2
2022/03/16 00:00:08;;;;;;;13.75;7.60;;;;;;;9.10;56.35;100743.75;5115377;28;20051;-59
2022/03/16 00:02:54;;;;;;;12.63;7.15;;;;;;;9.10;56.39;100746.41;5114379;28;20043;-58
2022/03/16 00:05:21;;;;;;;12.80;8.30;;;;;;;9.08;56.26;100750.84;5115204;28;20047;-59
2022/03/16 00:07:48;;;;;;;9.88;7.63;;;;;;;9.05;56.49;100741.28;5115088;27;20093;-59
2022/03/16 00:10:14;;;;;;;10.80;7.22;;;;;;;9.04;56.47;100736.13;5114742;28;20070;-59
2022/03/16 00:12:42;;;;;;;12.43;8.00;;;;;;;9.01;56.60;100739.69;5113646;28;20108;-58
2022/03/16 00:15:09;;;;;;;13.65;8.30;;;;;;;8.97;56.17;100746.81;5115119;28;20373;-59
2022/03/16 00:17:36;;;;;;;13.98;8.27;;;;;;;8.92;56.40;100740.88;5113639;28;20043;-58
2022/03/16 00:20:03;;;;;;;17.27;9.65;;;;;;;8.87;56.62;100740.19;5114503;28;20492;-58
2022/03/16 00:22:30;;;;;;;16.55;9.68;;;;;;;8.81;56.69;100743.84;5113696;28;20507;-61
2022/03/16 00:24:58;;;;;;;12.75;9.35;;;;;;;8.77;56.94;100751.88;5114726;28;20434;-62
2022/03/16 00:27:25;;;;;;;12.93;8.95;;;;;;;8.71;57.04;100753.81;5113231;28;20112;-56
2022/03/16 00:29:52;;;;;;;15.43;8.93;;;;;;;8.67;56.98;100746.09;5114514;28;20100;-58
2022/03/16 00:32:18;;;;;;;11.93;9.02;;;;;;;8.64;56.84;100748.81;5114026;28;20051;-61
2022/03/16 00:34:45;;;;;;;15.68;9.13;;;;;;;8.59;57.25;100747.19;5113280;28;20074;-59
2022/03/16 00:37:11;;;;;;;14.18;9.85;;;;;;;8.56;57.28;100746.44;5114205;28;20059;-58
2022/03/16 00:39:38;;;;;;;14.70;9.35;;;;;;;8.53;57.19;100751.78;5114029;27;20495;-58
2022/03/16 00:42:05;;;;;;;16.10;9.88;;;;;;;8.49;57.30;100756.25;5114214;28;20527;-59
2022/03/16 00:44:35;;;;;;;13.63;9.45;;;;;;;8.46;57.56;100759.81;5114026;28;20059;-58
2022/03/16 00:47:03;;;;;;;15.48;9.40;;;;;;;8.42;57.81;100755.59;5112866;28;20047;-59
2022/03/16 00:49:30;;;;;;;12.90;9.00;;;;;;;8.40;57.57;100752.16;5113823;28;20067;-58
2022/03/16 00:51:58;;;;;;;12.35;8.63;;;;;;;8.37;57.73;100752.25;5113820;28;20056;-61
2022/03/16 00:54:24;;;;;;;15.55;9.93;;;;;;;8.35;57.80;100743.56;5112728;28;20047;-58
2022/03/16 00:56:51;;;;;;;11.73;8.43;;;;;;;8.31;58.20;100739.31;5113475;27;20405;-58
2022/03/16 00:59:18;;;;;;;14.95;9.55;;;;;;;8.30;58.32;100751.56;5113370;28;20545;-56
2022/03/16 01:01:45;;;;;;;14.77;8.95;;;;;;;8.29;58.05;100747.25;5113599;27;20050;-58
2022/03/16 01:04:11;;;;;;;15.23;9.52;;;;;;;8.27;58.41;100753.44;5113693;28;20055;-59
2022/03/16 01:06:39;;;;;;;13.43;9.05;;;;;;;8.26;58.27;100743.88;5113899;28;20071;-59
2022/03/16 01:09:06;;;;;;;18.17;9.98;;;;;;;8.25;58.43;100755.25;5114051;28;20059;-60
2022/03/16 01:11:32;;;;;;;15.18;9.43;;;;;;;8.24;58.62;100749.16;5113770;28;20044;-59
2022/03/16 01:13:59;;;;;;;13.45;8.90;;;;;;;8.25;58.54;100750.88;5112488;28;20491;-58
2022/03/16 01:16:26;;;;;;;16.10;9.52;;;;;;;8.24;58.31;100740.41;5112243;28;20442;-59
2022/03/16 01:18:53;;;;;;;13.35;9.60;;;;;;;8.23;58.38;100743.94;5113418;28;20582;-58
2022/03/16 01:21:20;;;;;;;16.88;9.27;;;;;;;8.22;58.57;100748.31;5111939;28;20054;-58
2022/03/16 01:23:47;;;;;;;16.33;9.02;;;;;;;8.19;58.41;100749.28;5113476;28;20058;-58
2022/03/16 01:26:13;;;;;;;18.45;9.45;;;;;;;8.17;58.29;100740.63;5113247;28;20051;-59
2022/03/16 01:28:40;;;;;;;14.93;9.13;;;;;;;8.16;58.84;100743.28;5113289;27;20051;-58
2022/03/16 01:31:06;;;;;;;15.18;9.25;;;;;;;8.14;58.60;100740.72;5112922;28;20066;-57
2022/03/16 01:33:33;;;;;;;11.82;9.20;;;;;;;8.14;58.79;100738.09;5113099;28;20051;-59
2022/03/16 01:36:00;;;;;;;16.45;10.02;;;;;;;8.14;58.78;100734.59;5113176;28;20048;-60
2022/03/16 01:38:26;;;;;;;14.80;9.43;;;;;;;8.12;58.86;100741.66;5113191;28;20503;-59
2022/03/16 01:40:53;;;;;;;14.02;9.32;;;;;;;8.12;59.02;100733.78;5112750;28;20048;-58
2022/03/16 01:43:20;;;;;;;13.15;9.77;;;;;;;8.12;59.00;100744.28;5112983;28;20086;-59
2022/03/16 01:45:51;;;;;;;15.10;10.57;;;;;;;8.08;60.10;100738.28;5112675;28;20411;-59
2022/03/16 01:48:19;;;;;;;17.00;10.13;;;;;;;8.11;59.00;100745.19;5111626;28;20066;-58
2022/03/16 01:50:47;;;;;;;18.92;10.95;;;;;;;8.10;59.46;100748.72;5112371;28;20051;-58
2022/03/16 01:53:14;;;;;;;16.95;10.48;;;;;;;8.11;59.82;100738.16;5112516;28;20047;-58
2022/03/16 01:55:42;;;;;;;16.95;11.25;;;;;;;8.12;59.89;100742.53;5112732;28;20058;-57
2022/03/16 01:58:10;;;;;;;15.50;10.98;;;;;;;8.15;59.83;100742.41;5111150;28;20048;-59
2022/03/16 02:00:38;;;;;;;19.35;11.35;;;;;;;8.19;59.95;100744.03;5112051;28;20062;-56
2022/03/16 02:03:07;;;;;;;15.90;11.10;;;;;;;8.23;60.15;100744.81;5111326;28;20056;-58
2022/03/16 02:05:35;;;;;;;20.35;11.40;;;;;;;8.26;60.26;100734.22;5112686;28;20126;-57
2022/03/16 02:08:04;;;;;;;15.32;10.95;;;;;;;8.29;60.22;100736.75;5112578;27;20043;-58
2022/03/16 02:10:32;;;;;;;19.30;11.85;;;;;;;8.32;60.19;100747.16;5111804;28;20056;-59
2022/03/16 02:12:59;;;;;;;17.88;12.25;;;;;;;8.35;60.12;100747.03;5111078;28;20439;-60
2022/03/16 02:15:26;;;;;;;19.00;11.35;;;;;;;8.39;60.06;100750.44;5112086;28;20108;-60
2022/03/16 02:17:56;;;;;;;18.88;12.10;;;;;;;8.40;60.00;100754.78;5111188;28;20047;-59
2022/03/16 02:20:27;;;;;;;17.75;11.23;;;;;;;8.43;59.86;100749.44;5110920;28;20044;-60
2022/03/16 02:23:01;;;;;;;15.63;10.00;;;;;;;8.43;59.73;100746.81;5112165;28;20552;-59
2022/03/16 02:25:29;;;;;;;17.13;10.77;;;;;;;8.46;59.65;100737.97;5110776;28;20219;-57
2022/03/16 02:27:57;;;;;;;19.75;12.07;;;;;;;8.47;59.55;100747.56;5110768;28;20104;-58
2022/03/16 02:30:26;;;;;;;17.05;11.50;;;;;;;8.48;59.62;100736.16;5110677;28;20488;-58
2022/03/16 02:32:53;;;;;;;18.70;12.70;;;;;;;8.48;59.52;100737.03;5112012;28;20052;-57
2022/03/16 02:35:21;;;;;;;17.40;11.68;;;;;;;8.50;59.32;100733.47;5110491;28;20043;-58
2022/03/16 02:37:48;;;;;;;17.85;12.13;;;;;;;8.51;59.55;100737.81;5110487;28;20047;-58
2022/03/16 02:40:20;;;;;;;19.88;12.05;;;;;;;8.48;60.28;100739.63;5111611;28;20097;-57
2022/03/16 02:42:47;;;;;;;23.55;12.77;;;;;;;8.51;59.34;100735.19;5111951;28;20056;-60
2022/03/16 02:45:14;;;;;;;17.13;11.25;;;;;;;8.52;59.30;100742.19;5111698;28;20105;-59
2022/03/16 02:47:41;;;;;;;22.00;11.70;;;;;;;8.52;59.08;100744.81;5111632;28;20047;-58
2022/03/16 02:50:08;;;;;;;18.90;13.02;;;;;;;8.50;59.23;100755.34;5111341;28;20511;-59
2022/03/16 02:52:35;;;;;;;18.25;12.20;;;;;;;8.47;58.90;100753.69;5110036;28;20408;-58
2022/03/16 02:55:03;;;;;;;19.95;11.98;;;;;;;8.45;59.58;100755.47;5111367;28;20054;-60
2022/03/16 02:57:29;;;;;;;21.48;10.80;;;;;;;8.43;59.31;100762.56;5111462;28;20047;-60
2022/03/16 02:59:56;;;;;;;23.30;13.30;;;;;;;8.42;59.25;100760.84;5111298;28;20097;-58
2022/03/16 03:02:23;;;;;;;17.60;12.23;;;;;;;8.40;59.17;100757.41;5111257;28;20089;-58
2022/03/16 03:04:49;;;;;;;17.65;11.98;;;;;;;8.37;59.13;100757.47;5111313;28;20078;-58
2022/03/16 03:07:16;;;;;;;22.65;12.45;;;;;;;8.34;59.35;100757.59;5111112;28;20043;-58
2022/03/16 03:09:42;;;;;;;17.52;11.50;;;;;;;8.33;59.44;100748.88;5111078;28;20047;-58
2022/03/16 03:12:10;;;;;;;19.60;11.60;;;;;;;8.31;59.37;100753.31;5111278;28;20056;-59
2022/03/16 03:14:37;;;;;;;16.70;10.65;;;;;;;8.32;59.28;100754.16;5111078;28;20054;-59
2022/03/16 03:17:04;;;;;;;18.13;11.88;;;;;;;8.31;59.17;100749.81;5110906;28;20484;-58
2022/03/16 03:19:31;;;;;;;18.65;11.10;;;;;;;8.30;59.48;100753.34;5110751;28;20467;-59
2022/03/16 03:21:58;;;;;;;17.10;11.10;;;;;;;8.29;59.06;100752.50;5110044;28;20062;-58
2022/03/16 03:24:24;;;;;;;17.88;11.70;;;;;;;8.28;59.08;100761.28;5111234;28;20156;-59
2022/03/16 03:26:51;;;;;;;15.13;11.52;;;;;;;8.27;58.84;100774.44;5111133;28;20196;-56
2022/03/16 03:29:18;;;;;;;19.17;11.48;;;;;;;8.24;59.06;100774.50;5110703;28;20451;-60
2022/03/16 03:31:45;;;;;;;16.70;12.27;;;;;;;8.19;59.10;100775.50;5111123;28;20047;-59
2022/03/16 03:34:12;;;;;;;23.00;14.07;;;;;;;8.13;59.16;100773.09;5110935;28;20043;-58
2022/03/16 03:36:38;;;;;;;19.05;12.10;;;;;;;8.07;59.07;100776.75;5110506;28;20068;-61
2022/03/16 03:39:05;;;;;;;14.98;11.35;;;;;;;8.02;58.83;100777.78;5110730;28;20069;-58
2022/03/16 03:41:32;;;;;;;17.60;11.00;;;;;;;7.94;59.41;100773.66;5111247;28;20051;-58
2022/03/16 03:43:58;;;;;;;19.95;12.75;;;;;;;7.90;59.38;100777.28;5110922;28;20047;-58
2022/03/16 03:46:25;;;;;;;17.27;12.00;;;;;;;7.86;59.54;100783.50;5110711;28;20092;-59
2022/03/16 03:48:53;;;;;;;17.70;12.20;;;;;;;7.82;59.54;100781.88;5110708;28;20056;-59
2022/03/16 03:51:20;;;;;;;16.38;12.10;;;;;;;7.81;60.01;100774.88;5109396;28;20056;-56
2022/03/16 03:53:46;;;;;;;23.20;14.93;;;;;;;7.78;59.96;100775.84;5110880;28;20449;-57
2022/03/16 03:56:13;;;;;;;19.55;13.38;;;;;;;7.77;60.03;100773.25;5110646;28;20430;-60
2022/03/16 03:58:39;;;;;;;22.45;13.57;;;;;;;7.78;60.46;100775.84;5110675;28;20048;-60
2022/03/16 04:01:06;;;;;;;17.42;12.15;;;;;;;7.79;60.36;100766.22;5110156;28;20048;-58
2022/03/16 04:03:33;;;;;;;20.27;14.27;;;;;;;7.79;60.29;100764.47;5110565;28;20051;-60
2022/03/16 04:06:00;;;;;;;18.85;13.32;;;;;;;7.80;60.30;100767.94;5109463;28;20058;-56
2022/03/16 04:08:27;;;;;;;22.15;15.05;;;;;;;7.80;60.11;100760.94;5110806;28;20055;-61
2022/03/16 04:10:54;;;;;;;20.95;15.65;;;;;;;7.82;60.39;100761.75;5109138;28;20480;-57
2022/03/16 04:13:21;;;;;;;20.42;14.32;;;;;;;7.83;60.34;100760.00;5110559;28;20052;-56
2022/03/16 04:15:47;;;;;;;15.73;13.30;;;;;;;7.85;60.14;100757.31;5110402;28;20074;-60
2022/03/16 04:18:14;;;;;;;19.63;14.07;;;;;;;7.84;60.51;100753.84;5110479;28;20139;-58
2022/03/16 04:20:41;;;;;;;22.98;14.90;;;;;;;7.86;60.26;100765.16;5110400;28;20096;-56
2022/03/16 04:23:07;;;;;;;26.92;15.73;;;;;;;7.88;60.26;100765.09;5110381;28;20058;-58
2022/03/16 04:25:34;;;;;;;22.77;15.73;;;;;;;7.87;60.29;100759.00;5110519;28;20104;-59
2022/03/16 04:28:01;;;;;;;22.95;15.55;;;;;;;7.87;60.25;100764.25;5110298;28;20105;-59
2022/03/16 04:30:28;;;;;;;22.77;15.18;;;;;;;7.88;60.11;100763.31;5110179;28;20372;-59
2022/03/16 04:32:54;;;;;;;23.55;15.63;;;;;;;7.88;60.13;100759.84;5111017;28;20066;-59
2022/03/16 04:35:21;;;;;;;22.17;15.10;;;;;;;7.87;60.49;100768.63;5114311;28;20051;-57
2022/03/16 04:37:48;;;;;;;24.80;16.40;;;;;;;7.84;60.45;100766.94;5114205;28;20047;-60
2022/03/16 04:40:15;;;;;;;22.35;15.68;;;;;;;7.84;60.33;100766.09;5114299;28;20062;-58
2022/03/16 04:42:41;;;;;;;25.15;16.42;;;;;;;7.82;60.50;100771.38;5113974;28;20048;-57
2022/03/16 04:45:09;;;;;;;28.10;16.55;;;;;;;7.81;60.54;100764.41;5113743;28;20051;-60
2022/03/16 04:47:35;;;;;;;24.65;15.98;;;;;;;7.81;60.49;100773.13;5112878;28;20385;-58
2022/03/16 04:50:02;;;;;;;24.55;15.95;;;;;;;7.81;60.68;100778.38;5113632;28;20044;-58
2022/03/16 04:52:29;;;;;;;24.30;15.13;;;;;;;7.81;60.33;100775.75;5113766;28;20488;-59
2022/03/16 04:54:55;;;;;;;24.35;16.17;;;;;;;7.83;60.40;100770.47;5113715;28;20044;-58
2022/03/16 04:57:22;;;;;;;23.15;15.45;;;;;;;7.83;60.68;100767.84;5113572;28;20043;-60
2022/03/16 04:59:48;;;;;;;24.25;15.63;;;;;;;7.83;60.73;100767.84;5113395;28;20055;-58
2022/03/16 05:02:15;;;;;;;30.52;15.15;;;;;;;7.85;60.51;100768.66;5113734;28;20105;-59
2022/03/16 05:04:42;;;;;;;24.13;14.82;;;;;;;7.87;60.75;100764.25;5113675;28;20039;-58
2022/03/16 05:07:08;;;;;;;26.08;15.50;;;;;;;7.88;60.50;100760.72;5113512;27;20134;-58
2022/03/16 05:09:35;;;;;;;26.33;15.73;;;;;;;7.89;60.65;100761.56;5113007;27;20058;-58
2022/03/16 05:12:02;;;;;;;26.50;15.75;;;;;;;7.88;60.47;100763.31;5113143;28;20063;-58
2022/03/16 05:14:28;;;;;;;20.85;14.80;;;;;;;7.88;60.55;100767.69;5113226;28;20565;-59
2022/03/16 05:16:56;;;;;;;22.67;13.88;;;;;;;7.87;60.54;100764.25;5113078;28;20044;-59
2022/03/16 05:19:23;;;;;;;24.35;15.25;;;;;;;7.86;60.69;100766.91;5113065;28;20618;-58
2022/03/16 05:21:50;;;;;;;22.10;14.95;;;;;;;7.86;60.62;100769.53;5113355;28;20549;-58
2022/03/16 05:24:19;;;;;;;24.60;15.32;;;;;;;7.85;60.51;100775.69;5113307;28;20120;-58
2022/03/16 05:26:46;;;;;;;24.13;15.30;;;;;;;7.83;60.84;100775.72;5113112;28;20707;-58
2022/03/16 05:29:13;;;;;;;22.10;15.40;;;;;;;7.83;60.47;100778.34;5112739;28;20063;-58
2022/03/16 05:31:39;;;;;;;22.40;14.82;;;;;;;7.82;60.16;100787.13;5113317;28;20054;-58
2022/03/16 05:34:06;;;;;;;25.88;15.02;;;;;;;7.80;60.71;100783.66;5113183;28;20054;-59
2022/03/16 05:36:32;;;;;;;24.02;15.52;;;;;;;7.78;60.48;100778.47;5113087;28;20131;-58
2022/03/16 05:39:02;;;;;;;24.25;15.40;;;;;;;7.76;60.26;100785.53;5113188;28;20134;-58
2022/03/16 05:41:28;;;;;;;24.13;14.38;;;;;;;7.73;60.31;100776.91;5111418;28;20059;-58
2022/03/16 05:43:55;;;;;;;27.30;16.15;;;;;;;7.71;60.11;100786.56;5112581;28;20491;-58
2022/03/16 05:46:21;;;;;;;24.88;14.93;;;;;;;7.68;60.42;100787.50;5112086;28;20054;-58
2022/03/16 05:48:48;;;;;;;22.70;15.18;;;;;;;7.64;60.23;100791.97;5111507;28;20047;-59
2022/03/16 05:51:15;;;;;;;25.23;15.85;;;;;;;7.63;60.45;100797.25;5112331;28;20051;-59
2022/03/16 05:53:41;;;;;;;24.92;15.45;;;;;;;7.59;60.91;100801.69;5112590;28;20040;-58
2022/03/16 05:56:08;;;;;;;24.05;15.68;;;;;;;7.60;60.98;100799.94;5112188;28;20745;-59
2022/03/16 05:58:34;;;;;;;27.90;15.95;;;;;;;7.59;61.05;100801.69;5112204;28;20069;-61
2022/03/16 06:01:01;;;;;;;23.25;16.45;;;;;;;7.60;61.00;100798.22;5111434;28;20116;-56
2022/03/16 06:03:28;;;;;;;30.65;17.67;;;;;;;7.60;60.95;100803.44;5112557;28;20047;-59
2022/03/16 06:05:54;;;;;;;24.70;16.48;;;;;;;7.61;61.15;100805.16;5112396;28;20098;-59
2022/03/16 06:08:21;;;;;;;24.20;16.23;;;;;;;7.61;60.81;100802.53;5112438;27;20050;-57
2022/03/16 06:10:47;;;;;;;24.65;15.73;;;;;;;7.61;60.93;100796.44;5112178;28;20059;-56
2022/03/16 06:13:14;;;;;;;28.25;16.77;;;;;;;7.61;61.20;100805.16;5112563;28;20105;-59
2022/03/16 06:15:43;;;;;;;28.65;17.50;;;;;;;7.61;61.40;100813.03;5112508;28;20044;-55
2022/03/16 06:18:11;;;;;;;27.48;17.33;;;;;;;7.61;61.62;100807.78;5110920;28;20420;-61
2022/03/16 06:20:38;;;;;;;28.83;17.88;;;;;;;7.63;61.66;100805.97;5111996;28;20047;-60
2022/03/16 06:23:05;;;;;;;28.45;16.65;;;;;;;7.66;61.48;100815.50;5110494;28;20055;-59
2022/03/16 06:25:35;;;;;;;26.83;16.92;;;;;;;7.68;61.80;100817.19;5111039;28;20403;-59
2022/03/16 06:28:02;;;;;;;27.25;17.20;;;;;;;7.72;61.89;100817.09;5110975;28;20047;-58
2022/03/16 06:30:29;;;;;;;28.50;16.40;;;;;;;7.75;62.06;100817.88;5112006;28;20048;-58
2022/03/16 06:32:56;;;;;;;31.17;17.10;;;;;;;7.80;61.99;100820.34;5111850;28;20062;-59
2022/03/16 06:35:22;;;;;;;28.45;16.92;;;;;;;7.85;62.05;100828.94;5111975;28;20051;-59
2022/03/16 06:37:49;;;;;;;28.95;17.83;;;;;;;7.92;62.38;100829.63;5110458;28;20052;-59
2022/03/16 06:40:16;;;;;;;28.00;16.60;;;;;;;7.99;62.41;100831.19;5112015;28;20055;-58
2022/03/16 06:42:53;;;;;;;27.33;17.17;;;;;;;8.06;63.46;100837.09;5111884;28;20051;-59
2022/03/16 06:45:21;;;;;;;25.60;15.55;;;;;;;8.17;62.69;100824.56;5110408;28;20044;-55
2022/03/16 06:47:48;;;;;;;25.95;16.63;;;;;;;8.27;62.47;100837.38;5110259;28;20484;-59
2022/03/16 06:50:15;;;;;;;29.65;16.80;;;;;;;8.35;62.56;100838.00;5111281;28;20050;-61
2022/03/16 06:52:41;;;;;;;26.60;16.02;;;;;;;8.46;62.56;100845.56;5111618;28;20055;-58
2022/03/16 06:55:09;;;;;;;25.00;16.83;;;;;;;8.55;62.59;100849.69;5111532;28;20048;-57
2022/03/16 06:57:36;;;;;;;25.02;15.75;;;;;;;8.65;62.59;100856.38;5109887;28;20430;-58
2022/03/16 07:00:05;;;;;;;26.02;16.15;;;;;;;8.73;62.60;100854.38;5111222;28;20515;-60
2022/03/16 07:02:48;;;;;;;23.45;15.20;;;;;;;8.83;62.93;100854.09;5110095;28;20065;-59
2022/03/16 07:05:15;;;;;;;20.80;14.60;;;;;;;8.97;62.19;100846.59;5111524;28;20071;-61
2022/03/16 07:07:47;;;;;;;23.50;14.93;;;;;;;9.08;62.10;100850.66;5111174;28;20055;-60
2022/03/16 07:10:14;;;;;;;25.30;14.43;;;;;;;9.18;61.75;100849.44;5111152;28;20047;-58
2022/03/16 07:12:40;;;;;;;23.52;14.32;;;;;;;9.27;61.86;100850.88;5111116;28;20572;-57
2022/03/16 07:15:08;;;;;;;23.98;15.05;;;;;;;9.35;61.70;100850.63;5111128;28;20043;-57
2022/03/16 07:17:34;;;;;;;23.75;14.93;;;;;;;9.43;61.64;100856.50;5109783;28;20059;-59
2022/03/16 07:20:03;;;;;;;25.35;15.13;;;;;;;9.49;61.12;100848.38;5110902;28;20641;-59
2022/03/16 07:22:30;;;;;;;25.73;14.75;;;;;;;9.55;61.18;100847.31;5109744;28;20051;-58
2022/03/16 07:25:17;;;;;;;24.88;14.20;;;;;;;9.61;60.91;100849.72;5111015;28;20044;-57
2022/03/16 07:27:43;;;;;;;21.35;14.13;;;;;;;9.67;60.81;100847.78;5110876;28;20593;-56
2022/03/16 07:30:10;;;;;;;20.90;13.50;;;;;;;9.71;60.68;100852.88;5110929;28;20116;-58
2022/03/16 07:32:41;;;;;;;21.77;14.15;;;;;;;9.78;60.61;100846.50;5110807;28;20101;-58
2022/03/16 07:35:11;;;;;;;20.77;13.55;;;;;;;9.85;60.57;100849.75;5110916;28;20784;-58
2022/03/16 07:37:39;;;;;;;18.98;13.10;;;;;;;9.94;60.76;100851.19;5109583;28;20040;-57
2022/03/16 07:40:06;;;;;;;18.15;12.45;;;;;;;10.01;60.54;100846.56;5109393;28;20047;-59
2022/03/16 07:42:34;;;;;;;21.75;12.88;;;;;;;10.11;60.41;100854.97;5111072;28;20062;-60
2022/03/16 07:45:01;;;;;;;20.20;12.93;;;;;;;10.20;60.42;100853.78;5111025;28;20496;-57
2022/03/16 07:47:27;;;;;;;19.52;12.57;;;;;;;10.29;60.39;100864.78;5110823;28;20050;-60
2022/03/16 07:50:05;;;;;;;19.75;12.77;;;;;;;10.39;60.03;100867.09;5110570;28;20195;-57
2022/03/16 07:52:32;;;;;;;19.38;13.13;;;;;;;10.48;59.85;100863.28;5110434;28;20047;-59
2022/03/16 07:54:59;;;;;;;19.45;12.18;;;;;;;10.57;59.64;100856.81;5110387;28;20056;-58
2022/03/16 07:57:25;;;;;;;18.92;12.57;;;;;;;10.64;59.32;100861.75;5110643;28;20048;-59
2022/03/16 07:59:52;;;;;;;19.83;12.07;;;;;;;10.69;59.07;100862.44;5110490;28;20077;-58
2022/03/16 08:02:19;;;;;;;17.85;11.98;;;;;;;10.74;58.88;100854.34;5110581;28;20043;-58
2022/03/16 08:04:45;;;;;;;18.83;11.63;;;;;;;10.79;58.67;100857.66;5110541;28;20048;-60
2022/03/16 08:07:12;;;;;;;18.45;11.60;;;;;;;10.81;58.39;100858.44;5110403;28;20404;-58
2022/03/16 08:09:39;;;;;;;16.98;12.07;;;;;;;10.87;58.45;100853.88;5113976;28;20496;-57
2022/03/16 08:12:06;;;;;;;16.60;10.95;;;;;;;10.87;58.21;100853.88;5114796;27;20057;-58
2022/03/16 08:14:32;;;;;;;17.88;11.73;;;;;;;10.87;58.15;100848.59;5114843;28;20062;-58
2022/03/16 08:16:59;;;;;;;16.27;11.07;;;;;;;10.89;58.01;100858.16;5114351;28;20073;-59
2022/03/16 08:19:26;;;;;;;19.55;11.38;;;;;;;10.89;57.89;100857.28;5114188;28;20120;-59
2022/03/16 08:21:53;;;;;;;18.58;11.05;;;;;;;10.89;57.83;100852.88;5114191;28;20059;-61
2022/03/16 08:24:19;;;;;;;17.55;11.55;;;;;;;10.90;57.95;100856.34;5114363;28;20047;-56
2022/03/16 08:27:05;;;;;;;16.20;10.45;;;;;;;10.92;57.99;100850.09;5114150;28;20079;-58
2022/03/16 08:29:32;;;;;;;16.75;11.02;;;;;;;10.95;58.12;100855.25;5114090;27;20056;-58
2022/03/16 08:32:00;;;;;;;16.60;10.77;;;;;;;10.98;58.05;100850.78;5114100;28;20052;-61
2022/03/16 08:34:27;;;;;;;16.52;10.43;;;;;;;11.01;58.02;100843.59;5114139;28;20052;-60
2022/03/16 08:36:54;;;;;;;17.73;10.90;;;;;;;11.05;58.00;100847.84;5114057;28;20074;-58
2022/03/16 08:39:20;;;;;;;20.27;11.00;;;;;;;11.12;58.11;100847.56;5113758;28;20052;-58
2022/03/16 08:41:47;;;;;;;18.00;11.55;;;;;;;11.16;57.84;100843.88;5114065;28;20079;-59
2022/03/16 08:44:14;;;;;;;19.35;11.27;;;;;;;11.20;57.89;100848.09;5113863;28;20127;-58
2022/03/16 08:46:41;;;;;;;17.52;11.30;;;;;;;11.26;57.76;100839.09;5113980;28;20059;-56
2022/03/16 08:49:07;;;;;;;21.58;11.18;;;;;;;11.32;57.86;100838.81;5113635;28;20077;-60
2022/03/16 08:51:36;;;;;;;19.55;11.63;;;;;;;11.37;57.97;100836.84;5113639;28;20487;-58
2022/03/16 08:54:03;;;;;;;20.90;12.35;;;;;;;11.44;57.80;100837.44;5113609;28;20048;-59
2022/03/16 08:56:29;;;;;;;19.23;12.95;;;;;;;11.51;57.93;100833.59;5113675;28;20044;-61
2022/03/16 08:58:56;;;;;;;22.45;13.85;;;;;;;11.57;57.97;100833.34;5113477;28;20048;-59
2022/03/16 09:01:22;;;;;;;17.77;11.93;;;;;;;11.64;57.75;100835.72;5113303;28;20043;-57
2022/03/16 09:03:49;;;;;;;16.52;12.30;;;;;;;11.69;57.67;100836.34;5113627;28;20114;-61
2022/03/16 09:06:16;;;;;;;18.35;12.40;;;;;;;11.75;57.57;100833.47;5113347;28;20430;-61
2022/03/16 09:08:42;;;;;;;19.05;12.50;;;;;;;11.80;57.70;100831.47;5113328;28;20055;-58
2022/03/16 09:11:09;;;;;;;20.45;12.70;;;;;;;11.86;57.42;100830.34;5113322;28;20108;-59
2022/03/16 09:13:36;;;;;;;19.65;12.63;;;;;;;11.91;57.09;100830.13;5113568;28;20108;-61
2022/03/16 09:16:02;;;;;;;19.00;12.73;;;;;;;11.96;57.37;100823.72;5113521;28;20048;-58
2022/03/16 09:18:29;;;;;;;23.40;13.38;;;;;;;12.02;57.44;100821.72;5113541;28;20047;-58
2022/03/16 09:20:57;;;;;;;17.65;12.30;;;;;;;12.09;57.38;100816.13;5111709;28;20047;-59
2022/03/16 09:23:24;;;;;;;22.60;13.85;;;;;;;12.13;57.20;100806.28;5112244;28;20051;-58
2022/03/16 09:25:51;;;;;;;17.65;12.88;;;;;;;12.19;57.27;100805.97;5113206;28;20566;-59
2022/03/16 09:28:18;;;;;;;23.00;13.15;;;;;;;12.23;57.29;100799.63;5113320;28;20043;-64
2022/03/16 09:30:44;;;;;;;20.08;13.82;;;;;;;12.31;57.30;100791.38;5112806;28;20100;-57
2022/03/16 09:33:11;;;;;;;22.55;14.15;;;;;;;12.37;56.90;100791.06;5113048;28;20060;-55
2022/03/16 09:35:38;;;;;;;19.77;12.82;;;;;;;12.47;56.95;100780.03;5113107;28;20049;-57
2022/03/16 09:38:04;;;;;;;23.05;13.40;;;;;;;12.55;56.65;100775.25;5113163;28;20044;-60
2022/03/16 09:40:31;;;;;;;23.30;14.48;;;;;;;12.63;56.21;100786.28;5112885;28;20085;-59
2022/03/16 09:42:58;;;;;;;22.77;13.90;;;;;;;12.71;55.80;100783.25;5112958;28;20043;-56
2022/03/16 09:45:29;;;;;;;22.00;13.95;;;;;;;12.79;55.59;100777.63;5113100;28;20056;-58
2022/03/16 09:47:56;;;;;;;21.13;13.65;;;;;;;12.88;55.74;100785.09;5111692;28;20479;-59
2022/03/16 09:50:23;;;;;;;20.75;13.00;;;;;;;12.96;55.47;100782.03;5112489;28;20105;-58
2022/03/16 09:52:50;;;;;;;24.25;14.57;;;;;;;13.05;55.17;100774.59;5112723;28;20055;-58
2022/03/16 09:55:18;;;;;;;21.98;14.38;;;;;;;13.12;55.07;100781.28;5112505;28;20104;-59
2022/03/16 09:57:44;;;;;;;20.20;13.18;;;;;;;13.20;54.66;100772.94;5111138;28;20043;-58
2022/03/16 10:00:12;;;;;;;24.30;14.13;;;;;;;13.28;54.54;100776.03;5112513;28;20626;-57
2022/03/16 10:02:40;;;;;;;21.48;14.30;;;;;;;13.35;54.32;100782.69;5112630;28;20050;-61
2022/03/16 10:05:09;;;;;;;22.08;12.82;;;;;;;13.45;53.91;100774.31;5112304;28;20062;-59
2022/03/16 10:07:38;;;;;;;18.42;13.18;;;;;;;13.54;53.56;100776.50;5112414;28;20059;-59
2022/03/16 10:13:14;;;;;;;21.52;12.85;;;;;;;13.78;52.02;100776.09;5077976;28;20048;-58
2022/03/16 10:15:42;;;;;;;25.08;13.52;;;;;;;13.91;53.25;100774.50;5112385;28;20051;-58
2022/03/16 10:18:09;;;;;;;23.45;14.05;;;;;;;14.03;53.06;100772.13;5110808;28;20051;-61
2022/03/16 10:20:39;;;;;;;25.48;14.43;;;;;;;14.14;53.20;100768.88;5112194;28;20088;-59
2022/03/16 10:23:12;;;;;;;21.85;13.48;;;;;;;14.26;52.79;100775.28;5112332;28;20089;-59
2022/03/16 10:25:45;;;;;;;22.00;14.70;;;;;;;14.40;53.21;100774.50;5112233;28;20055;-57
2022/03/16 10:28:25;;;;;;;20.42;13.05;;;;;;;14.55;52.57;100778.06;5110590;28;20056;-61
2022/03/16 10:31:02;;;;;;;19.67;13.60;;;;;;;14.74;52.54;100769.91;5111284;28;20130;-58
2022/03/16 10:33:33;;;;;;;18.95;13.25;;;;;;;14.91;51.09;100774.25;5110889;28;20047;-59
2022/03/16 10:36:06;;;;;;;18.38;12.98;;;;;;;15.06;51.95;100771.66;5110777;28;20067;-60
2022/03/16 10:38:36;;;;;;;19.33;13.48;;;;;;;15.20;50.69;100765.50;5111893;28;20062;-54
2022/03/16 10:46:50;;;;;;;19.80;13.50;;;;;;;15.63;50.85;100767.34;5111593;28;20052;-61
2022/03/16 10:49:19;;;;;;;17.90;13.80;;;;;;;15.69;50.05;100761.63;5111296;28;20048;-57
2022/03/16 10:51:59;;;;;;;21.10;13.23;;;;;;;15.74;49.24;100756.88;5110120;28;20047;-60
2022/03/16 10:54:26;;;;;;;17.17;12.93;;;;;;;15.86;49.67;100751.75;5111714;28;20055;-61
2022/03/16 10:56:54;;;;;;;18.80;14.07;;;;;;;15.95;49.70;100758.28;5111469;28;20127;-57
2022/03/16 10:59:26;;;;;;;19.75;13.23;;;;;;;16.04;49.28;100763.03;5109939;28;20058;-58
2022/03/16 11:01:54;;;;;;;19.30;14.10;;;;;;;16.18;50.04;100764.78;5110037;28;20043;-57
2022/03/16 11:04:24;;;;;;;19.67;14.07;;;;;;;16.33;50.02;100767.41;5110037;28;20460;-59
2022/03/16 11:06:53;;;;;;;20.33;14.90;;;;;;;16.47;49.78;100761.19;5110182;28;20134;-59
2022/03/16 11:09:20;;;;;;;18.80;14.38;;;;;;;16.59;49.39;100757.72;5111216;28;20377;-57
2022/03/16 11:14:34;;;;;;;21.52;14.70;;;;;;;16.80;49.18;100752.78;5111406;28;20052;-57
2022/03/16 11:17:02;;;;;;;22.65;15.75;;;;;;;16.88;49.07;100759.38;5109714;28;20058;-59
2022/03/16 11:19:31;;;;;;;22.30;15.90;;;;;;;16.95;48.98;100763.34;5111038;28;20130;-57
2022/03/16 11:22:08;;;;;;;20.55;14.68;;;;;;;16.98;47.72;100763.13;5111151;28;20047;-56
2022/03/16 11:24:39;;;;;;;21.48;14.88;;;;;;;17.08;47.66;100744.75;5109758;28;20046;-60
2022/03/16 11:27:12;;;;;;;18.00;14.57;;;;;;;17.18;47.07;100745.81;5110764;28;20056;-59
2022/03/16 11:29:45;;;;;;;19.98;14.70;;;;;;;17.30;46.76;100741.47;5109406;28;20052;-60